Time;durP1;ratioP1;P1;durP2;ratioP2;P2;SDS_P1;SDS_P2;PMS_P1;PMS_P2;Temp;Humidity;BMP_temperature;BMP_pressure;BME280_temperature;BME280_humidity;BME280_pressure;Samples;Min_cycle;Max_cycle;Signal;HPM_P1;HPM_P2
2023/03/25 00:02:05;;;;;;;1.05;0.60;;;;;;;3.11;61.36;94468.97;5015691;28;20037;-72
2023/03/25 00:04:31;;;;;;;0.88;0.65;;;;;;;2.96;62.13;94481.09;5018567;28;20046;-73
2023/03/25 00:06:56;;;;;;;0.80;0.50;;;;;;;2.18;64.18;94470.47;5033453;28;20033;-72
2023/03/25 00:09:22;;;;;;;3.40;0.90;;;;;;;2.21;64.25;94480.69;5014039;28;20079;-72
2023/03/25 00:11:50;;;;;;;1.33;0.88;;;;;;;2.58;63.68;94471.69;5018064;28;20623;-73
2023/03/25 00:14:16;;;;;;;2.58;0.88;;;;;;;2.45;63.37;94473.94;4997474;28;20405;-73
2023/03/25 00:16:47;;;;;;;0.68;0.60;;;;;;;1.98;64.84;94475.91;5018026;28;20057;-72
2023/03/25 00:19:14;;;;;;;3.63;1.58;;;;;;;2.30;63.17;94465.78;5016535;28;20568;-73
2023/03/25 00:21:40;;;;;;;1.90;0.88;;;;;;;2.39;63.54;94470.94;5000337;28;20041;-72
2023/03/25 00:24:05;;;;;;;2.38;1.15;;;;;;;1.96;64.34;94475.22;5016587;28;20516;-73
2023/03/25 00:26:31;;;;;;;1.13;0.70;;;;;;;1.52;65.77;94482.06;5017469;28;20288;-73
2023/03/25 00:28:56;;;;;;;0.40;0.40;;;;;;;1.41;66.75;94482.25;5018009;28;20049;-73
2023/03/25 00:31:22;;;;;;;1.38;0.70;;;;;;;2.09;64.06;94487.97;5015822;28;20395;-73
2023/03/25 00:33:49;;;;;;;2.00;1.00;;;;;;;1.85;65.15;94487.63;5016732;28;20038;-73
2023/03/25 00:36:16;;;;;;;1.65;0.73;;;;;;;2.33;64.07;94482.06;5017411;28;20323;-72
2023/03/25 00:38:42;;;;;;;1.35;0.70;;;;;;;2.19;64.10;94480.00;5000343;28;20056;-72
2023/03/25 00:41:21;;;;;;;1.13;0.75;;;;;;;2.30;63.96;94477.13;5014509;28;20048;-72
2023/03/25 00:43:47;;;;;;;1.60;0.70;;;;;;;2.88;62.38;94469.53;5000467;28;20041;-72
2023/03/25 00:46:12;;;;;;;2.67;0.85;;;;;;;2.73;61.93;94476.38;5016278;28;20036;-72
2023/03/25 00:48:38;;;;;;;0.68;0.63;;;;;;;3.03;61.08;94464.50;5015614;28;20146;-73
2023/03/25 00:51:07;;;;;;;1.27;0.98;;;;;;;3.01;61.33;94466.47;5015866;28;20036;-72
2023/03/25 00:53:33;;;;;;;1.20;0.80;;;;;;;3.45;59.76;94466.44;5017907;28;20037;-73
2023/03/25 00:56:00;;;;;;;3.42;1.35;;;;;;;3.30;59.32;94469.66;5015594;28;20083;-72
2023/03/25 00:58:25;;;;;;;2.85;0.65;;;;;;;3.17;58.88;94473.59;5017638;28;20055;-73
2023/03/25 01:00:50;;;;;;;3.90;1.25;;;;;;;2.81;60.78;94473.78;5016811;28;20359;-73
2023/03/25 01:03:17;;;;;;;1.70;0.75;;;;;;;2.85;60.13;94463.75;5016887;28;20052;-73
2023/03/25 01:05:42;;;;;;;1.77;0.80;;;;;;;3.04;59.79;94466.13;4999211;28;20038;-72
2023/03/25 01:08:08;;;;;;;0.93;0.65;;;;;;;3.12;59.80;94468.00;5015568;28;20435;-73
2023/03/25 01:10:36;;;;;;;2.60;0.93;;;;;;;3.59;58.27;94452.66;5016060;28;20350;-73
2023/03/25 01:13:02;;;;;;;3.42;0.80;;;;;;;3.45;58.29;94448.03;5017135;28;20037;-73
2023/03/25 01:15:27;;;;;;;4.60;1.05;;;;;;;3.76;56.86;94444.78;5011326;28;20033;-73
2023/03/25 01:17:53;;;;;;;3.25;1.33;;;;;;;3.26;57.79;94442.03;5017275;28;20038;-73
2023/03/25 01:20:18;;;;;;;0.75;0.60;;;;;;;3.53;58.20;94433.06;5016808;28;20084;-73
2023/03/25 01:22:43;;;;;;;3.53;1.00;;;;;;;3.57;57.21;94443.28;5017568;28;20025;-73
2023/03/25 01:25:09;;;;;;;2.80;1.17;;;;;;;3.92;55.86;94441.31;5016734;28;20348;-73
2023/03/25 01:27:35;;;;;;;4.25;1.00;;;;;;;4.30;55.96;94441.63;5015488;28;20037;-73
2023/03/25 01:30:00;;;;;;;2.17;1.08;;;;;;;3.62;57.17;94443.59;5015749;28;20379;-73
2023/03/25 01:32:27;;;;;;;1.65;0.85;;;;;;;2.81;60.82;94446.66;5015333;28;20282;-73
2023/03/25 01:34:53;;;;;;;1.95;1.05;;;;;;;3.53;58.72;94437.50;5015679;28;20276;-73
2023/03/25 01:37:18;;;;;;;2.38;1.25;;;;;;;3.26;58.87;94442.88;5015605;28;20041;-73
2023/03/25 01:39:43;;;;;;;2.92;1.00;;;;;;;3.08;58.29;94443.00;5015290;28;20056;-73
2023/03/25 01:42:10;;;;;;;2.05;0.85;;;;;;;2.96;60.07;94437.19;5017022;28;20033;-73
2023/03/25 01:44:38;;;;;;;2.20;1.02;;;;;;;3.05;59.58;94435.41;5018952;28;20394;-73
2023/03/25 01:47:05;;;;;;;4.03;1.10;;;;;;;3.33;58.90;94439.59;5021126;28;20323;-73
2023/03/25 01:49:39;;;;;;;3.97;1.15;;;;;;;3.68;58.03;94422.72;5019794;28;20238;-73
2023/03/25 01:52:08;;;;;;;2.17;1.38;;;;;;;3.43;57.90;94424.47;5018889;28;20188;-73
2023/03/25 01:54:33;;;;;;;2.63;1.10;;;;;;;3.25;58.27;94437.75;5019717;28;20422;-73
2023/03/25 01:56:58;;;;;;;2.85;1.02;;;;;;;3.21;58.68;94429.38;5018657;28;20512;-73
2023/03/25 01:59:25;;;;;;;3.38;0.90;;;;;;;3.99;56.95;94421.25;5002804;28;20516;-73
2023/03/25 02:01:52;;;;;;;2.05;1.05;;;;;;;4.02;56.21;94417.44;5018768;28;20421;-71
2023/03/25 02:04:26;;;;;;;3.22;1.20;;;;;;;3.87;57.28;94422.53;5043588;22;20050;-80
2023/03/25 02:06:52;;;;;;;2.85;0.93;;;;;;;3.90;56.64;94415.16;4989963;28;20033;-80
2023/03/25 02:09:20;;;;;;;3.38;1.30;;;;;;;3.56;58.20;94416.13;5004287;28;20640;-80
2023/03/25 02:11:45;;;;;;;5.15;1.55;;;;;;;3.45;58.11;94416.44;4988410;28;20162;-66
2023/03/25 02:14:13;;;;;;;3.28;1.30;;;;;;;3.42;57.91;94417.56;5020039;28;20448;-66
2023/03/25 02:17:00;;;;;;;1.70;1.17;;;;;;;3.34;58.79;94415.78;5018223;28;20528;-65
2023/03/25 02:19:41;;;;;;;3.95;1.40;;;;;;;3.28;59.25;94408.50;5036587;28;20583;-66
2023/03/25 02:22:37;;;;;;;0.95;0.85;;;;;;;3.43;58.81;94401.63;5016969;28;20046;-66
2023/03/25 02:25:44;;;;;;;3.13;1.63;;;;;;;3.09;59.75;94409.63;5016062;28;20045;-66
2023/03/25 02:28:46;;;;;;;3.60;1.60;;;;;;;2.68;61.52;94411.13;5009129;28;20452;-65
2023/03/25 02:31:41;;;;;;;1.70;1.50;;;;;;;3.65;58.56;94399.38;5016098;28;20803;-67
2023/03/25 02:34:37;;;;;;;4.47;1.70;;;;;;;3.36;59.20;94403.25;5016137;28;20120;-66
2023/03/25 02:37:27;;;;;;;1.90;0.90;;;;;;;3.49;58.66;94407.25;5016750;28;20061;-66
2023/03/25 02:40:00;;;;;;;1.52;1.08;;;;;;;2.38;62.64;94403.63;5015892;28;20105;-66
2023/03/25 02:42:48;;;;;;;0.90;0.90;;;;;;;2.60;61.69;94396.16;5001160;28;20750;-66
2023/03/25 02:45:17;;;;;;;2.78;1.35;;;;;;;2.57;62.41;94393.84;5016733;28;20478;-65
2023/03/25 02:47:45;;;;;;;2.90;1.70;;;;;;;2.65;62.54;94391.25;4999547;28;20522;-66
2023/03/25 02:50:16;;;;;;;3.13;1.48;;;;;;;3.00;60.94;94391.19;5016342;28;20502;-66
2023/03/25 02:52:44;;;;;;;2.67;1.48;;;;;;;3.06;60.71;94404.69;5000003;28;20198;-66
2023/03/25 02:55:10;;;;;;;2.88;1.63;;;;;;;2.46;62.92;94392.34;5016364;28;20079;-66
2023/03/25 02:57:40;;;;;;;2.63;1.50;;;;;;;2.82;61.34;94398.38;5016250;28;20028;-66
2023/03/25 03:00:11;;;;;;;2.40;1.27;;;;;;;2.76;62.67;94394.59;5014437;28;20143;-66
2023/03/25 03:02:36;;;;;;;3.28;1.60;;;;;;;2.16;64.10;94391.00;5017037;28;20036;-66
2023/03/25 03:05:02;;;;;;;3.10;1.80;;;;;;;2.70;62.42;94374.19;5015942;28;20099;-66
2023/03/25 03:07:35;;;;;;;2.03;1.75;;;;;;;2.70;62.55;94376.81;5016590;28;20060;-66
2023/03/25 03:10:18;;;;;;;1.52;1.15;;;;;;;1.85;66.38;94379.19;5017045;28;20116;-66
2023/03/25 03:13:02;;;;;;;3.35;1.30;;;;;;;1.72;67.25;94375.16;5016154;28;20155;-66
2023/03/25 03:15:39;;;;;;;4.03;1.45;;;;;;;2.08;65.72;94376.84;5017339;28;20457;-66
2023/03/25 03:18:50;;;;;;;1.20;1.08;;;;;;;2.07;64.37;94372.59;5030456;28;20093;-66
2023/03/25 03:21:34;;;;;;;2.97;1.38;;;;;;;1.46;67.19;94359.34;5015633;28;20085;-66
2023/03/25 03:24:14;;;;;;;4.78;2.03;;;;;;;1.86;66.31;94371.16;5017071;28;20417;-66
2023/03/25 03:26:44;;;;;;;1.67;1.48;;;;;;;1.81;66.45;94375.22;5019132;28;20036;-66
2023/03/25 03:29:13;;;;;;;2.55;1.73;;;;;;;1.59;67.97;94354.56;5018829;28;20106;-66
2023/03/25 03:31:46;;;;;;;3.05;1.77;;;;;;;1.22;68.52;94373.91;5015980;28;20038;-66
2023/03/25 03:34:41;;;;;;;1.40;1.13;;;;;;;1.71;67.40;94370.06;5019173;28;20545;-66
2023/03/25 03:37:07;;;;;;;1.25;1.17;;;;;;;1.48;67.96;94371.34;5017191;28;20073;-65
2023/03/25 03:39:35;;;;;;;4.90;1.80;;;;;;;1.74;67.38;94380.28;5000435;28;20037;-66
2023/03/25 03:42:34;;;;;;;6.33;1.97;;;;;;;1.00;69.78;94386.50;5017250;28;20033;-66
2023/03/25 03:45:06;;;;;;;5.00;1.75;;;;;;;1.18;69.79;94369.94;5004373;28;20317;-65
2023/03/25 03:47:35;;;;;;;3.28;1.48;;;;;;;0.98;69.66;94380.56;5001105;28;20424;-66
2023/03/25 03:50:09;;;;;;;4.47;1.83;;;;;;;0.71;71.52;94400.59;5016801;28;20339;-66
2023/03/25 03:52:41;;;;;;;6.18;1.92;;;;;;;-0.06;73.38;94388.50;5001204;28;20081;-65
2023/03/25 03:55:14;;;;;;;5.10;2.03;;;;;;;-0.33;75.23;94377.81;5014973;28;20238;-65
2023/03/25 03:57:52;;;;;;;4.93;1.83;;;;;;;-0.30;75.81;94400.28;5017429;28;20939;-66
2023/03/25 04:00:22;;;;;;;6.30;1.85;;;;;;;0.72;72.15;94402.25;5015711;28;20074;-65
2023/03/25 04:03:01;;;;;;;4.90;1.90;;;;;;;0.76;71.43;94400.16;5015046;28;20112;-66
2023/03/25 04:05:29;;;;;;;5.37;1.90;;;;;;;0.82;70.59;94410.88;5015771;28;20093;-65
2023/03/25 04:08:01;;;;;;;1.63;1.38;;;;;;;0.76;71.74;94410.63;5016618;28;21042;-65
2023/03/25 04:10:33;;;;;;;4.90;1.83;;;;;;;1.04;71.10;94414.06;5016740;28;20039;-66
2023/03/25 04:13:00;;;;;;;2.00;1.25;;;;;;;1.19;70.19;94416.97;5016195;28;20079;-66
2023/03/25 04:15:25;;;;;;;5.05;1.90;;;;;;;0.72;71.04;94417.97;5016094;28;20072;-66
2023/03/25 04:17:50;;;;;;;2.88;1.42;;;;;;;0.77;71.52;94428.84;5000152;28;20051;-66
2023/03/25 04:20:22;;;;;;;4.38;1.75;;;;;;;1.04;69.73;94414.06;5017740;28;20074;-65
2023/03/25 04:22:48;;;;;;;3.60;1.70;;;;;;;0.71;70.81;94419.75;4999224;28;20047;-66
2023/03/25 04:25:14;;;;;;;3.28;1.67;;;;;;;0.95;70.21;94421.00;5016983;28;20059;-66
2023/03/25 04:27:39;;;;;;;3.33;1.27;;;;;;;0.99;70.12;94424.19;5014917;28;20126;-66
2023/03/25 04:30:05;;;;;;;4.70;1.70;;;;;;;0.96;69.74;94417.41;5017947;28;20033;-66
2023/03/25 04:32:31;;;;;;;2.97;1.05;;;;;;;1.26;67.99;94426.88;5017717;28;20635;-66
2023/03/25 04:34:56;;;;;;;4.93;1.63;;;;;;;0.97;68.63;94420.88;5017674;28;20050;-66
2023/03/25 04:37:27;;;;;;;1.48;1.00;;;;;;;1.05;68.29;94426.19;5016028;28;20725;-65
2023/03/25 04:39:54;;;;;;;2.53;1.08;;;;;;;1.02;68.82;94428.28;5016853;28;20104;-66
2023/03/25 04:42:24;;;;;;;4.13;1.42;;;;;;;1.52;67.37;94411.22;5017052;28;20762;-66
2023/03/25 04:44:50;;;;;;;4.50;1.60;;;;;;;1.41;66.79;94417.53;5016918;28;20173;-66
2023/03/25 04:47:16;;;;;;;5.22;1.27;;;;;;;1.00;68.24;94417.94;5017020;28;20637;-66
2023/03/25 04:49:43;;;;;;;2.95;1.38;;;;;;;0.84;69.65;94423.81;5015396;28;20577;-65
2023/03/25 04:52:09;;;;;;;1.38;1.08;;;;;;;1.60;66.59;94415.75;5016723;28;20145;-66
2023/03/25 04:54:37;;;;;;;4.05;1.40;;;;;;;1.39;66.54;94416.84;4999627;28;20049;-66
2023/03/25 04:57:02;;;;;;;4.22;1.50;;;;;;;1.40;66.45;94422.91;5016526;28;20476;-65
2023/03/25 04:59:28;;;;;;;4.53;1.48;;;;;;;1.76;65.40;94417.66;5016538;28;20612;-65
2023/03/25 05:01:53;;;;;;;3.90;1.20;;;;;;;1.12;66.80;94426.41;5015792;28;20054;-66
2023/03/25 05:04:19;;;;;;;2.88;1.45;;;;;;;1.29;66.88;94432.66;5016628;28;20610;-66
2023/03/25 05:06:46;;;;;;;2.10;0.85;;;;;;;1.41;66.51;94424.56;5016798;28;20040;-65
2023/03/25 05:09:17;;;;;;;4.90;1.60;;;;;;;0.64;67.45;94433.56;5015807;28;20080;-65
2023/03/25 05:11:43;;;;;;;3.92;1.73;;;;;;;1.00;68.15;94433.69;5016249;28;20078;-66
2023/03/25 05:14:09;;;;;;;1.50;1.13;;;;;;;1.30;65.96;94434.28;5016301;28;20059;-65
2023/03/25 05:16:34;;;;;;;2.70;1.05;;;;;;;1.61;64.94;94435.75;5015693;28;20539;-66
2023/03/25 05:19:02;;;;;;;2.38;1.35;;;;;;;1.30;65.71;94433.47;5017210;28;20178;-65
2023/03/25 05:21:27;;;;;;;2.70;1.55;;;;;;;0.75;67.13;94435.19;5015117;28;20520;-66
2023/03/25 05:23:53;;;;;;;2.58;1.10;;;;;;;1.57;64.98;94429.97;5015566;28;20079;-65
2023/03/25 05:26:19;;;;;;;2.60;1.10;;;;;;;1.04;66.48;94437.66;5016107;28;20537;-66
2023/03/25 05:28:45;;;;;;;4.45;1.38;;;;;;;1.33;64.98;94431.38;5013766;28;20753;-66
2023/03/25 05:31:10;;;;;;;2.00;1.08;;;;;;;1.15;65.63;94438.41;5015024;28;20052;-66
2023/03/25 05:33:44;;;;;;;2.58;1.30;;;;;;;1.10;65.93;94455.41;5015957;28;20038;-66
2023/03/25 05:36:12;;;;;;;3.00;1.30;;;;;;;1.66;64.20;94440.56;5015992;28;20153;-66
2023/03/25 05:38:42;;;;;;;3.33;1.10;;;;;;;0.91;65.50;94452.88;5016731;28;20057;-65
2023/03/25 05:41:09;;;;;;;;;;;;;;;1.06;65.21;94455.84;5016387;28;20157;-65
2023/03/25 05:43:36;;;;;;;5.47;1.30;;;;;;;1.05;65.60;94457.66;5015725;28;20039;-66
2023/03/25 05:46:03;;;;;;;6.90;1.23;;;;;;;1.43;63.29;94480.34;5016429;28;20075;-65
2023/03/25 05:48:31;;;;;;;2.55;1.23;;;;;;;0.57;66.15;94457.75;5015184;28;20169;-66
2023/03/25 05:50:57;;;;;;;4.30;1.40;;;;;;;1.08;63.96;94462.59;5015399;28;20045;-65
2023/03/25 05:53:23;;;;;;;3.08;1.30;;;;;;;1.59;62.84;94458.69;5016886;28;20518;-66
2023/03/25 05:55:50;;;;;;;1.58;1.00;;;;;;;1.71;62.48;94454.06;5016232;28;20074;-65
2023/03/25 05:58:16;;;;;;;1.70;1.13;;;;;;;1.44;62.41;94467.06;5017101;28;20054;-66
2023/03/25 06:00:42;;;;;;;4.25;1.30;;;;;;;1.18;63.80;94467.78;5013672;28;20109;-66
2023/03/25 06:03:09;;;;;;;3.25;1.08;;;;;;;1.13;63.57;94469.19;5016216;28;20412;-66
2023/03/25 06:05:38;;;;;;;2.70;1.20;;;;;;;0.91;63.84;94471.22;5017232;28;20032;-65
2023/03/25 06:08:03;;;;;;;3.17;1.17;;;;;;;0.73;64.01;94469.41;5014903;28;20108;-65
2023/03/25 06:10:28;;;;;;;2.15;1.05;;;;;;;1.24;63.99;94469.00;5016717;28;20548;-65
2023/03/25 06:12:54;;;;;;;2.97;1.10;;;;;;;2.22;59.86;94459.50;5015824;28;20113;-65
2023/03/25 06:15:32;;;;;;;3.80;1.30;;;;;;;1.65;60.91;94478.25;5016294;28;20108;-65
2023/03/25 06:17:58;;;;;;;1.23;0.73;;;;;;;1.92;60.63;94461.59;5016281;28;20074;-65
2023/03/25 06:20:23;;;;;;;3.58;1.10;;;;;;;1.32;63.16;94468.25;5015226;28;20137;-65
2023/03/25 06:22:49;;;;;;;1.55;1.10;;;;;;;1.75;60.72;94461.47;5013525;28;20045;-65
2023/03/25 06:25:16;;;;;;;2.60;0.95;;;;;;;1.17;61.14;94476.63;5015007;28;20070;-65
2023/03/25 06:27:42;;;;;;;5.47;1.50;;;;;;;2.46;59.67;94460.66;5015932;28;20813;-73
2023/03/25 06:30:09;;;;;;;2.42;1.23;;;;;;;2.07;59.76;94471.53;5016416;28;20186;-73
2023/03/25 06:32:35;;;;;;;3.25;1.20;;;;;;;1.48;62.08;94473.66;5018692;28;20069;-73
2023/03/25 06:35:01;;;;;;;2.65;1.20;;;;;;;2.47;59.32;94469.34;5017865;28;20037;-73
2023/03/25 06:37:27;;;;;;;4.03;1.13;;;;;;;2.97;58.74;94472.22;5019498;28;20446;-73
2023/03/25 06:39:55;;;;;;;1.25;0.88;;;;;;;2.21;58.80;94481.50;5018773;28;20136;-73
2023/03/25 06:42:23;;;;;;;4.50;1.20;;;;;;;2.11;61.03;94471.09;5019528;28;20425;-73
2023/03/25 06:44:49;;;;;;;5.03;1.40;;;;;;;2.74;59.01;94470.97;5017588;28;20064;-73
2023/03/25 06:47:15;;;;;;;11.15;4.57;;;;;;;2.39;59.68;94478.81;5017848;28;20437;-73
2023/03/25 06:49:40;;;;;;;1.75;1.02;;;;;;;2.16;60.21;94481.13;5017123;28;20475;-73
2023/03/25 06:52:06;;;;;;;2.80;1.20;;;;;;;1.66;62.47;94479.94;5019206;28;20505;-73
2023/03/25 06:54:31;;;;;;;2.50;1.02;;;;;;;1.84;61.91;94488.59;5019645;28;20051;-73
2023/03/25 06:56:56;;;;;;;1.73;0.95;;;;;;;1.41;62.67;94475.22;5017565;28;20322;-73
2023/03/25 06:59:22;;;;;;;3.55;1.25;;;;;;;1.97;62.17;94466.38;5018982;28;20384;-73
2023/03/25 07:01:47;;;;;;;4.97;1.50;;;;;;;1.90;61.53;94475.84;5018961;28;20653;-73
2023/03/25 07:04:13;;;;;;;3.88;1.20;;;;;;;1.78;61.11;94491.00;5018605;28;20083;-73
2023/03/25 07:06:38;;;;;;;2.22;1.10;;;;;;;1.20;62.22;94465.81;5019543;28;20049;-73
2023/03/25 07:09:04;;;;;;;2.67;0.80;;;;;;;1.17;64.26;94475.78;5019042;28;20551;-73
2023/03/25 07:11:29;;;;;;;4.75;1.63;;;;;;;0.96;63.08;94466.41;5018644;28;20064;-72
2023/03/25 07:13:55;;;;;;;3.08;1.08;;;;;;;1.57;62.46;94463.28;5019664;28;20066;-73
2023/03/25 07:16:21;;;;;;;3.20;1.20;;;;;;;2.43;60.04;94453.06;5017258;28;20080;-73
2023/03/25 07:18:46;;;;;;;4.18;1.27;;;;;;;2.24;60.02;94457.56;5019194;28;20052;-73
2023/03/25 07:21:12;;;;;;;4.80;0.95;;;;;;;2.32;61.20;94453.34;5018950;28;20645;-73
2023/03/25 07:23:37;;;;;;;5.55;1.25;;;;;;;2.62;59.44;94465.16;5016740;28;20063;-72
2023/03/25 07:26:03;;;;;;;5.28;1.20;;;;;;;2.60;58.87;94466.28;5019296;28;20070;-73
2023/03/25 07:28:28;;;;;;;3.58;1.20;;;;;;;1.61;62.03;94462.00;5018079;28;20064;-73
2023/03/25 07:30:53;;;;;;;2.78;1.27;;;;;;;1.99;61.57;94464.44;5017231;28;20062;-73
2023/03/25 07:33:19;;;;;;;3.05;1.13;;;;;;;1.80;61.58;94460.19;5019311;28;20071;-73
2023/03/25 07:35:44;;;;;;;2.40;0.80;;;;;;;1.92;62.73;94452.88;5017281;28;21034;-72
2023/03/25 07:38:10;;;;;;;2.70;1.08;;;;;;;2.46;60.18;94452.75;5018125;28;20059;-73
2023/03/25 07:40:35;;;;;;;4.40;1.38;;;;;;;1.50;62.86;94482.19;5016032;28;20485;-73
2023/03/25 07:43:01;;;;;;;4.22;1.30;;;;;;;0.54;65.87;94465.88;5018738;28;20047;-73
2023/03/25 07:45:26;;;;;;;3.78;1.10;;;;;;;1.80;63.29;94447.88;5014690;28;20115;-73
2023/03/25 07:47:52;;;;;;;1.42;1.00;;;;;;;2.45;61.10;94450.28;5014503;28;20042;-73
2023/03/25 07:50:18;;;;;;;3.10;1.30;;;;;;;1.76;62.19;94464.91;5016209;28;20030;-73
2023/03/25 07:52:43;;;;;;;3.20;1.27;;;;;;;1.30;64.55;94457.88;5018754;28;20072;-73
2023/03/25 07:55:09;;;;;;;2.47;1.40;;;;;;;1.36;65.26;94488.78;5017424;28;20045;-73
2023/03/25 07:57:34;;;;;;;0.98;0.65;;;;;;;1.72;64.13;94460.94;5018825;28;20055;-73
2023/03/25 08:00:00;;;;;;;2.53;1.10;;;;;;;1.10;65.65;94454.59;5017062;28;20087;-73
2023/03/25 08:02:25;;;;;;;2.55;1.08;;;;;;;1.16;65.98;94459.22;5018650;28;20076;-73
2023/03/25 08:04:53;;;;;;;4.10;0.98;;;;;;;1.42;65.79;94463.75;5018344;28;20078;-73
2023/03/25 08:07:19;;;;;;;5.38;1.58;;;;;;;-0.26;71.57;94456.56;5018136;28;20098;-72
2023/03/25 08:09:44;;;;;;;3.97;1.50;;;;;;;0.56;69.06;94471.81;5018503;28;20572;-72
2023/03/25 08:12:10;;;;;;;4.05;1.25;;;;;;;0.80;69.34;94456.53;5018227;28;20029;-72
2023/03/25 08:14:35;;;;;;;3.90;1.45;;;;;;;0.72;69.97;94478.25;5017618;28;20053;-72
2023/03/25 08:17:00;;;;;;;4.07;1.27;;;;;;;0.55;71.13;94466.72;5018022;28;20159;-71
2023/03/25 08:19:26;;;;;;;5.75;1.50;;;;;;;0.01;73.62;94470.72;5017304;28;20126;-72
2023/03/25 08:21:51;;;;;;;5.40;1.48;;;;;;;0.24;74.07;94470.38;5018375;28;20383;-72
2023/03/25 08:24:17;;;;;;;5.25;1.77;;;;;;;0.56;72.82;94453.47;5017780;28;20129;-72
2023/03/25 08:26:42;;;;;;;3.25;1.30;;;;;;;0.84;71.13;94476.25;5018227;28;20616;-72
2023/03/25 08:29:08;;;;;;;5.22;1.50;;;;;;;0.50;70.02;94492.50;5016440;28;20033;-72
2023/03/25 08:31:37;;;;;;;3.67;1.33;;;;;;;0.51;73.61;94487.13;5017493;28;20037;-72
2023/03/25 08:34:03;;;;;;;1.75;0.90;;;;;;;0.34;74.67;94478.22;5017837;28;20054;-72
2023/03/25 08:36:28;;;;;;;3.95;1.35;;;;;;;0.07;75.59;94488.47;5016186;28;20797;-72
2023/03/25 08:38:53;;;;;;;4.75;1.77;;;;;;;-0.63;77.41;94549.59;5018110;28;20056;-72
2023/03/25 08:41:19;;;;;;;3.58;1.27;;;;;;;-0.13;77.59;94499.94;5016111;28;20949;-71
2023/03/25 08:43:44;;;;;;;3.00;1.25;;;;;;;-1.23;78.72;94511.13;5017457;28;20067;-71
2023/03/25 08:46:10;;;;;;;2.58;1.13;;;;;;;-1.94;79.91;94523.16;5018021;28;20033;-72
2023/03/25 08:48:35;;;;;;;4.10;1.00;;;;;;;-2.16;79.69;94520.53;5015764;28;20095;-73
2023/03/25 08:51:01;;;;;;;1.23;0.65;;;;;;;-1.90;78.37;94516.72;5017248;28;20047;-73
2023/03/25 08:53:26;;;;;;;1.50;0.70;;;;;;;-2.09;79.78;94528.69;5017555;28;20535;-73
2023/03/25 08:55:52;;;;;;;1.48;0.77;;;;;;;-1.75;79.58;94536.31;5015366;28;20064;-73
2023/03/25 08:58:18;;;;;;;1.95;0.70;;;;;;;-2.05;79.17;94514.44;5016630;28;20046;-73
2023/03/25 09:00:43;;;;;;;2.55;0.75;;;;;;;-1.63;78.27;94512.75;5017241;28;20109;-73
2023/03/25 09:03:09;;;;;;;0.98;0.60;;;;;;;-1.57;77.77;94509.63;5016403;28;20080;-73
2023/03/25 09:05:37;;;;;;;0.60;0.60;;;;;;;-2.01;78.47;94518.44;5017087;28;20049;-73
2023/03/25 09:08:03;;;;;;;8.50;1.00;;;;;;;-1.74;77.75;94521.47;5016872;28;20070;-74
2023/03/25 09:10:29;;;;;;;0.60;0.50;;;;;;;-1.23;75.39;94522.41;5015838;28;20481;-73
2023/03/25 09:12:54;;;;;;;1.00;0.38;;;;;;;-0.96;75.11;94522.81;5017577;28;20045;-73
2023/03/25 09:15:20;;;;;;;1.65;0.70;;;;;;;-1.44;73.11;94511.19;5016943;28;20033;-73
2023/03/25 09:17:45;;;;;;;2.20;0.98;;;;;;;-1.48;74.31;94524.53;5017594;28;20051;-73
2023/03/25 09:20:11;;;;;;;3.15;0.90;;;;;;;-1.40;74.25;94539.53;5017088;28;20473;-73
2023/03/25 09:22:36;;;;;;;2.15;0.90;;;;;;;-1.44;75.20;94519.03;5016728;28;20500;-73
2023/03/25 09:25:02;;;;;;;3.75;0.98;;;;;;;-1.28;75.24;94514.16;5017040;28;20052;-74
2023/03/25 09:27:27;;;;;;;1.35;0.90;;;;;;;-0.98;73.67;94522.91;5016265;28;20064;-72
2023/03/25 09:29:53;;;;;;;0.98;0.57;;;;;;;-0.62;72.77;94512.03;5016372;28;20038;-73
2023/03/25 09:32:18;;;;;;;1.35;0.70;;;;;;;0.06;71.58;94517.41;5016406;28;20072;-73
2023/03/25 09:34:44;;;;;;;2.28;0.82;;;;;;;0.19;68.48;94515.34;5015434;28;20505;-73
2023/03/25 09:37:10;;;;;;;3.05;1.20;;;;;;;-0.10;69.45;94505.69;5016719;28;20068;-73
2023/03/25 09:39:35;;;;;;;1.08;0.77;;;;;;;-0.13;70.21;94502.56;5014639;28;20075;-73
2023/03/25 09:42:36;;;;;;;1.58;0.80;;;;;;;0.10;68.71;94515.34;5015956;28;20109;-73
2023/03/25 09:45:35;;;;;;;2.58;1.23;;;;;;;-0.08;69.08;94513.41;4982368;28;20075;-73
2023/03/25 09:48:02;;;;;;;4.07;1.30;;;;;;;-0.07;69.95;94507.22;5016362;28;20436;-73
2023/03/25 09:50:28;;;;;;;3.65;1.23;;;;;;;0.01;70.46;94509.97;5014664;28;20082;-73
2023/03/25 09:53:36;;;;;;;5.18;1.10;;;;;;;0.49;69.14;94503.94;4996904;28;20709;-73
2023/03/25 09:56:02;;;;;;;2.80;1.30;;;;;;;0.77;66.94;94511.84;5012343;28;20053;-74
2023/03/25 09:58:44;;;;;;;2.33;0.85;;;;;;;0.69;67.05;94502.91;5014333;28;20215;-74
2023/03/25 10:01:38;;;;;;;5.13;1.65;;;;;;;0.51;65.61;94513.31;5014765;28;20075;-74
2023/03/25 10:04:07;;;;;;;5.28;1.50;;;;;;;0.76;65.03;94518.91;5003020;28;20168;-74
2023/03/25 10:06:32;;;;;;;4.60;1.57;;;;;;;0.68;62.94;94513.56;5020520;28;20033;-74
2023/03/25 10:09:17;;;;;;;6.35;1.48;;;;;;;0.71;66.57;94513.25;5020395;28;20078;-74
2023/03/25 10:11:49;;;;;;;5.30;1.40;;;;;;;0.68;64.74;94513.56;5019233;28;20107;-74
2023/03/25 10:14:26;;;;;;;7.93;1.50;;;;;;;0.95;64.66;94519.78;5003015;28;20061;-74
2023/03/25 10:17:18;;;;;;;5.38;1.38;;;;;;;0.56;65.74;94491.94;5018501;28;20151;-74
2023/03/25 10:19:59;;;;;;;4.32;1.30;;;;;;;0.94;63.79;94498.00;5018477;28;20553;-74
2023/03/25 10:22:35;;;;;;;4.70;1.50;;;;;;;0.69;62.92;94526.50;5018983;28;20884;-74
2023/03/25 10:25:05;;;;;;;5.95;1.33;;;;;;;0.66;64.90;94516.31;5018012;28;20071;-74
2023/03/25 10:27:40;;;;;;;5.35;1.15;;;;;;;1.23;64.12;94525.03;5015910;28;20071;-74
2023/03/25 10:30:08;;;;;;;1.77;1.27;;;;;;;1.27;64.04;94505.41;5019368;28;20320;-74
2023/03/25 10:32:43;;;;;;;3.57;1.40;;;;;;;1.32;63.23;94537.25;5015664;28;20683;-74
2023/03/25 10:35:19;;;;;;;4.43;1.55;;;;;;;1.35;63.92;94538.75;5000435;28;20051;-73
2023/03/25 10:37:46;;;;;;;4.10;1.17;;;;;;;1.48;61.63;94514.81;5019383;28;20122;-74
2023/03/25 10:40:18;;;;;;;2.70;1.10;;;;;;;1.13;64.77;94513.75;5001196;28;20071;-74
2023/03/25 10:42:54;;;;;;;3.28;1.13;;;;;;;1.51;63.67;94517.13;5019286;28;20026;-74
2023/03/25 10:45:19;;;;;;;4.63;1.30;;;;;;;1.64;62.09;94513.34;5014524;28;20774;-74
2023/03/25 10:47:45;;;;;;;5.05;1.30;;;;;;;1.91;61.42;94519.50;5017409;28;20065;-74
2023/03/25 10:50:15;;;;;;;4.40;1.40;;;;;;;2.01;60.85;94515.81;5001997;28;20387;-74
2023/03/25 10:52:41;;;;;;;3.65;1.05;;;;;;;2.65;59.45;94503.44;5016758;28;20456;-74
2023/03/25 10:55:21;;;;;;;3.60;1.50;;;;;;;2.56;59.10;94518.34;5017378;28;20036;-72
2023/03/25 10:57:46;;;;;;;3.40;1.15;;;;;;;3.08;58.64;94513.16;5017667;28;20033;-74
2023/03/25 11:00:17;;;;;;;3.75;1.27;;;;;;;2.76;57.47;94518.13;5001209;28;20136;-74
2023/03/25 11:02:43;;;;;;;5.05;1.77;;;;;;;2.35;59.19;94521.31;5017274;28;20335;-73
2023/03/25 11:05:08;;;;;;;4.97;1.80;;;;;;;1.94;59.70;94558.59;5019258;28;20438;-73
2023/03/25 11:07:36;;;;;;;5.63;1.73;;;;;;;1.96;61.43;94577.63;5017438;28;20041;-73
2023/03/25 11:10:28;;;;;;;4.68;1.70;;;;;;;2.48;59.79;94511.22;5001710;28;20040;-74
2023/03/25 11:12:55;;;;;;;4.22;1.50;;;;;;;2.53;59.00;94516.03;5018188;28;20379;-74
2023/03/25 11:15:21;;;;;;;3.05;1.45;;;;;;;2.45;58.62;94495.75;5017896;28;20068;-73
2023/03/25 11:17:53;;;;;;;6.43;1.55;;;;;;;2.97;60.49;94509.84;5019517;28;20566;-73
2023/03/25 11:20:25;;;;;;;4.97;1.88;;;;;;;2.55;58.81;94508.78;5017210;28;20545;-73
2023/03/25 11:22:52;;;;;;;6.50;1.67;;;;;;;3.27;56.90;94517.38;5017672;28;20049;-74
2023/03/25 11:25:22;;;;;;;5.18;1.75;;;;;;;3.10;57.29;94522.53;5017493;28;20052;-73
2023/03/25 11:27:51;;;;;;;3.65;1.10;;;;;;;3.17;56.25;94528.00;5017358;28;20048;-73
2023/03/25 11:30:18;;;;;;;6.80;1.67;;;;;;;3.41;55.38;94524.63;5018067;28;20025;-73
2023/03/25 11:32:44;;;;;;;5.43;1.90;;;;;;;3.03;56.10;94513.66;5017930;28;20121;-73
2023/03/25 11:35:24;;;;;;;8.38;2.20;;;;;;;1.91;62.62;94551.84;5000564;28;20036;-73
2023/03/25 11:37:55;;;;;;;4.30;1.60;;;;;;;2.11;65.77;94515.72;5017478;28;20053;-73
2023/03/25 11:40:21;;;;;;;5.68;1.80;;;;;;;2.56;62.45;94505.22;5016676;28;20125;-73
2023/03/25 11:42:51;;;;;;;5.63;1.70;;;;;;;2.00;61.42;94542.22;5018938;28;20048;-73
2023/03/25 11:45:32;;;;;;;6.32;1.98;;;;;;;1.01;70.81;94534.09;5017162;28;20073;-73
2023/03/25 11:48:00;;;;;;;6.28;1.77;;;;;;;0.92;72.87;94536.63;5016317;28;20870;-73
2023/03/25 11:50:26;;;;;;;5.07;1.98;;;;;;;1.03;71.73;94529.53;5017009;28;20461;-73
2023/03/25 11:52:57;;;;;;;4.10;1.65;;;;;;;1.39;70.75;94505.22;5016807;28;20410;-73